createdAt,value
2022-12-11T00:01:33.860Z,9.43
2022-12-11T00:04:37.047Z,8.60
2022-12-11T00:07:40.464Z,12.77
2022-12-11T00:10:50.121Z,8.80
2022-12-11T00:13:53.333Z,8.48
2022-12-11T00:16:56.583Z,14.63
2022-12-11T00:20:00.042Z,7.38
2022-12-11T00:23:05.521Z,11.60
2022-12-11T00:26:12.635Z,14.50
2022-12-11T00:29:16.135Z,9.47
2022-12-11T00:32:19.413Z,8.90
2022-12-11T00:35:22.622Z,7.50
2022-12-11T00:38:25.952Z,8.87
2022-12-11T00:41:32.939Z,14.75
2022-12-11T00:44:39.170Z,20.02
2022-12-11T00:47:47.638Z,11.10
2022-12-11T00:50:50.881Z,8.90
2022-12-11T00:53:54.110Z,7.45
2022-12-11T00:56:57.309Z,9.70
2022-12-11T01:00:00.456Z,7.07
2022-12-11T01:03:04.136Z,9.98
2022-12-11T01:06:08.529Z,8.25
2022-12-11T01:09:30.486Z,10.57
2022-12-11T01:12:33.752Z,10.57
2022-12-11T01:15:42.985Z,9.45
2022-12-11T01:18:46.277Z,7.80
2022-12-11T01:21:51.929Z,7.80
2022-12-11T01:24:55.254Z,11.30
2022-12-11T01:27:58.381Z,11.95
2022-12-11T01:31:01.698Z,16.53
2022-12-11T01:34:07.327Z,9.52
2022-12-11T01:37:10.564Z,8.90
2022-12-11T01:40:19.760Z,9.45
2022-12-11T01:43:22.971Z,10.70
2022-12-11T01:46:26.880Z,6.95
2022-12-11T01:49:30.433Z,6.57
2022-12-11T01:52:33.836Z,7.70
2022-12-11T01:55:39.229Z,6.90
2022-12-11T01:58:47.461Z,6.72
2022-12-11T02:02:08.827Z,6.32
2022-12-11T02:05:12.964Z,11.37
2022-12-11T02:08:16.739Z,7.15
2022-12-11T02:11:25.753Z,8.63
2022-12-11T02:14:59.924Z,6.00
2022-12-11T02:18:14.734Z,8.23
2022-12-11T02:21:41.765Z,9.43
2022-12-11T02:25:09.834Z,8.13
2022-12-11T02:28:34.588Z,6.20
2022-12-11T02:31:52.957Z,6.78
2022-12-11T02:35:23.913Z,3.58
2022-12-11T02:38:35.145Z,3.37
2022-12-11T02:41:43.196Z,7.03
2022-12-11T02:44:49.091Z,3.55
2022-12-11T02:47:53.197Z,4.28
2022-12-11T02:50:59.645Z,5.53
2022-12-11T02:54:04.245Z,4.47
2022-12-11T02:57:20.857Z,5.32
2022-12-11T03:00:24.433Z,5.35
2022-12-11T03:03:30.057Z,5.97
2022-12-11T03:06:38.248Z,5.80
2022-12-11T03:09:44.141Z,6.95
2022-12-11T03:12:53.654Z,8.65
2022-12-11T03:16:18.229Z,7.65
2022-12-11T03:19:47.640Z,13.05
2022-12-11T03:23:07.266Z,10.70
2022-12-11T03:26:13.656Z,10.53
2022-12-11T03:29:31.572Z,15.30
2022-12-11T03:32:50.388Z,13.88
2022-12-11T03:35:59.378Z,14.68
2022-12-11T03:39:22.785Z,17.57
2022-12-11T03:42:27.586Z,14.95
2022-12-11T03:45:32.385Z,16.73
2022-12-11T03:48:38.173Z,16.98
2022-12-11T03:51:42.320Z,16.43
2022-12-11T03:54:49.593Z,16.95
2022-12-11T03:57:52.775Z,17.27
2022-12-11T04:00:56.130Z,19.50
2022-12-11T04:03:59.272Z,17.42
2022-12-11T04:07:02.569Z,21.45
2022-12-11T04:10:06.381Z,21.33
2022-12-11T04:13:10.656Z,20.67
2022-12-11T04:16:13.879Z,25.85
2022-12-11T04:19:36.364Z,23.10
2022-12-11T04:22:58.367Z,21.00
2022-12-11T04:26:14.125Z,26.57
2022-12-11T04:29:17.393Z,24.10
2022-12-11T04:32:20.708Z,27.08
2022-12-11T04:35:24.465Z,23.50
2022-12-11T04:38:28.130Z,26.30
2022-12-11T04:41:31.402Z,24.75
2022-12-11T04:44:34.824Z,24.35
2022-12-11T04:47:39.270Z,23.47
2022-12-11T04:50:42.545Z,22.55
2022-12-11T04:53:46.381Z,24.58
2022-12-11T04:56:49.621Z,22.90
2022-12-11T04:59:52.968Z,22.52
2022-12-11T05:02:56.199Z,24.00
2022-12-11T05:05:59.374Z,25.17
2022-12-11T05:09:03.324Z,26.15
2022-12-11T05:12:06.617Z,22.75
2022-12-11T05:15:10.522Z,27.27
2022-12-11T05:18:13.853Z,25.73
2022-12-11T05:21:17.179Z,28.15
2022-12-11T05:24:20.484Z,26.10
2022-12-11T05:27:23.941Z,26.67
2022-12-11T05:30:27.694Z,31.17
2022-12-11T05:33:31.707Z,34.58
2022-12-11T05:36:35.137Z,34.97
2022-12-11T05:39:38.832Z,34.00
2022-12-11T05:42:42.079Z,36.75
2022-12-11T05:45:45.329Z,35.28
2022-12-11T05:48:50.668Z,25.83
2022-12-11T05:52:02.651Z,33.53
2022-12-11T05:55:06.159Z,32.20
2022-12-11T05:58:09.301Z,32.85
2022-12-11T06:01:30.726Z,29.45
2022-12-11T06:04:34.569Z,28.42
2022-12-11T06:07:37.741Z,34.25
2022-12-11T06:10:46.909Z,35.30
2022-12-11T06:13:50.128Z,37.88
2022-12-11T06:16:53.316Z,33.78
2022-12-11T06:19:56.588Z,28.75
2022-12-11T06:23:00.293Z,34.87
2022-12-11T06:26:05.034Z,30.23
2022-12-11T06:29:12.494Z,28.27
2022-12-11T06:32:16.072Z,32.67
2022-12-11T06:35:19.425Z,32.33
2022-12-11T06:38:23.173Z,28.45
2022-12-11T06:41:26.322Z,26.20
2022-12-11T06:44:29.548Z,25.73
2022-12-11T06:47:33.352Z,27.58
2022-12-11T06:50:38.697Z,29.30
2022-12-11T06:53:42.321Z,30.33
2022-12-11T06:56:45.498Z,27.23
2022-12-11T06:59:48.809Z,28.65
2022-12-11T07:02:52.194Z,27.70
2022-12-11T07:05:59.632Z,27.53
2022-12-11T07:09:05.883Z,32.10
2022-12-11T07:12:09.563Z,30.05
2022-12-11T07:15:13.301Z,28.40
2022-12-11T07:18:16.893Z,25.77
2022-12-11T07:21:21.239Z,31.33
2022-12-11T07:24:24.548Z,29.27
2022-12-11T07:27:28.416Z,30.33
2022-12-11T07:30:31.790Z,28.63
2022-12-11T07:33:35.292Z,26.92
2022-12-11T07:36:38.552Z,27.40
2022-12-11T07:39:41.992Z,25.70
2022-12-11T07:42:46.409Z,25.85
2022-12-11T07:45:49.762Z,24.83
2022-12-11T07:48:53.129Z,25.87
2022-12-11T07:51:56.940Z,26.98
2022-12-11T07:55:00.252Z,27.58
2022-12-11T07:58:03.697Z,27.80
2022-12-11T08:01:12.235Z,23.33
2022-12-11T08:04:16.168Z,24.35
2022-12-11T08:07:19.448Z,23.73
2022-12-11T08:10:23.056Z,23.33
2022-12-11T08:13:26.331Z,24.48
2022-12-11T08:16:30.198Z,19.80
2022-12-11T08:19:33.618Z,26.95
2022-12-11T08:22:36.793Z,20.47
2022-12-11T08:25:39.963Z,22.20
2022-12-11T08:28:43.890Z,22.20
2022-12-11T08:31:47.110Z,20.37
2022-12-11T08:34:52.527Z,22.15
2022-12-11T08:37:55.732Z,20.02
2022-12-11T08:40:59.106Z,19.80
2022-12-11T08:44:02.348Z,22.20
2022-12-11T08:47:05.656Z,22.98
2022-12-11T08:50:10.538Z,21.73
2022-12-11T08:53:13.733Z,24.27
2022-12-11T08:56:20.070Z,19.55
2022-12-11T08:59:23.477Z,20.67
2022-12-11T09:02:26.750Z,22.70
2022-12-11T09:05:30.313Z,22.23
2022-12-11T09:08:34.010Z,19.55
2022-12-11T09:11:38.016Z,23.33
2022-12-11T09:14:41.220Z,20.70
2022-12-11T09:17:44.578Z,22.00
2022-12-11T09:20:47.869Z,19.65
2022-12-11T09:23:54.922Z,22.38
2022-12-11T09:26:58.160Z,21.03
2022-12-11T09:30:02.161Z,20.27
2022-12-11T09:33:06.016Z,23.13
2022-12-11T09:36:10.366Z,21.83
2022-12-11T09:39:14.919Z,22.95
2022-12-11T09:42:41.056Z,20.58
2022-12-11T09:45:44.480Z,21.77
2022-12-11T09:48:49.329Z,23.03
2022-12-11T09:52:18.533Z,22.73
2022-12-11T09:55:27.453Z,26.33
2022-12-11T09:58:59.403Z,22.02
2022-12-11T10:02:13.918Z,22.23
2022-12-11T10:05:41.802Z,20.70
2022-12-11T10:09:03.839Z,19.98
2022-12-11T10:12:19.948Z,18.73
2022-12-11T10:15:48.674Z,18.05
2022-12-11T10:18:52.253Z,19.40
2022-12-11T10:21:56.702Z,20.00
2022-12-11T10:25:11.248Z,19.85
2022-12-11T10:28:17.347Z,23.95
2022-12-11T10:31:26.267Z,18.30
2022-12-11T10:34:37.773Z,20.27
2022-12-11T10:37:41.045Z,23.27
2022-12-11T10:40:49.731Z,20.17
2022-12-11T10:43:53.875Z,17.75
2022-12-11T10:47:15.576Z,21.40
2022-12-11T10:50:26.227Z,18.40
2022-12-11T10:53:31.322Z,21.05
2022-12-11T10:56:37.567Z,20.55
2022-12-11T10:59:49.326Z,20.80
2022-12-11T11:02:52.659Z,20.85
2022-12-11T11:06:17.468Z,19.10
2022-12-11T11:09:35.932Z,18.60
2022-12-11T11:12:47.574Z,18.38
2022-12-11T11:16:03.055Z,23.08
2022-12-11T11:19:07.215Z,21.88
2022-12-11T11:22:17.033Z,19.90
2022-12-11T11:25:23.234Z,21.23
2022-12-11T11:28:55.832Z,21.08
2022-12-11T11:32:15.379Z,18.83
2022-12-11T11:35:21.281Z,19.25
2022-12-11T11:38:47.904Z,21.90
2022-12-11T11:41:53.856Z,18.42
2022-12-11T11:45:10.240Z,17.37
2022-12-11T11:48:37.541Z,18.70
2022-12-11T11:51:54.685Z,20.30
2022-12-11T11:55:11.761Z,17.08
2022-12-11T11:58:28.068Z,19.60
2022-12-11T12:01:31.581Z,23.15
2022-12-11T12:04:38.493Z,19.77
2022-12-11T12:07:51.716Z,17.37
2022-12-11T12:11:05.637Z,18.60
2022-12-11T12:14:50.628Z,18.63
2022-12-11T12:17:55.718Z,16.73
2022-12-11T12:21:19.817Z,18.20
2022-12-11T12:25:02.889Z,17.42
2022-12-11T12:28:26.565Z,16.17
2022-12-11T12:31:48.575Z,15.90
2022-12-11T12:35:17.002Z,18.63
2022-12-11T12:38:40.316Z,16.85
2022-12-11T12:41:53.888Z,16.30
2022-12-11T12:45:06.349Z,17.63
2022-12-11T12:48:10.448Z,16.60
2022-12-11T12:51:17.730Z,20.05
2022-12-11T12:54:22.759Z,16.97
2022-12-11T12:57:26.009Z,18.65
2022-12-11T13:00:33.081Z,19.50
2022-12-11T13:03:51.017Z,19.17
2022-12-11T13:06:54.893Z,20.55
2022-12-11T13:10:08.083Z,19.17
2022-12-11T13:14:01.994Z,17.25
2022-12-11T13:17:27.166Z,19.73
2022-12-11T13:20:34.311Z,19.48
2022-12-11T13:23:40.282Z,23.00
2022-12-11T13:26:44.355Z,21.50
2022-12-11T13:29:47.688Z,21.03
2022-12-11T13:33:04.560Z,20.75
2022-12-11T13:36:16.736Z,21.80
2022-12-11T13:39:29.327Z,25.70
2022-12-11T13:42:55.708Z,20.80
2022-12-11T13:46:01.785Z,21.85
2022-12-11T13:49:07.925Z,20.42
2022-12-11T13:52:23.636Z,23.73
2022-12-11T13:55:32.646Z,21.85
2022-12-11T13:58:41.076Z,21.50
2022-12-11T14:01:44.347Z,21.50
2022-12-11T14:04:51.738Z,22.77
2022-12-11T14:07:58.689Z,21.70
2022-12-11T14:11:02.440Z,21.70
2022-12-11T14:14:21.235Z,19.38
2022-12-11T14:17:30.761Z,19.48
2022-12-11T14:20:35.349Z,18.85
2022-12-11T14:23:38.668Z,17.20
2022-12-11T14:26:51.696Z,20.88
2022-12-11T14:29:55.346Z,20.60
2022-12-11T14:33:05.902Z,17.23
2022-12-11T14:36:09.901Z,17.67
2022-12-11T14:39:25.661Z,16.95
2022-12-11T14:42:41.087Z,18.58
2022-12-11T14:45:48.624Z,18.00
2022-12-11T14:49:01.312Z,16.77
2022-12-11T14:52:05.469Z,17.95
2022-12-11T14:55:30.721Z,18.63
2022-12-11T14:58:43.341Z,18.20
2022-12-11T15:01:56.858Z,21.13
2022-12-11T15:05:14.224Z,19.02
2022-12-11T15:08:26.122Z,18.77
2022-12-11T15:11:32.807Z,17.10
2022-12-11T15:14:41.793Z,17.55
2022-12-11T15:17:51.103Z,20.00
2022-12-11T15:21:05.206Z,16.85
2022-12-11T15:24:24.929Z,15.27
2022-12-11T15:27:31.239Z,14.55
2022-12-11T15:30:35.927Z,13.98
2022-12-11T15:33:49.956Z,13.80
2022-12-11T15:36:53.456Z,16.35
2022-12-11T15:39:58.288Z,15.30
2022-12-11T15:43:03.435Z,17.67
2022-12-11T15:46:07.439Z,16.77
2022-12-11T15:49:12.952Z,15.32
2022-12-11T15:52:16.800Z,14.75
2022-12-11T15:55:22.363Z,14.57
2022-12-11T15:58:27.371Z,14.48
2022-12-11T16:01:30.957Z,13.40
2022-12-11T16:04:34.258Z,14.05
2022-12-11T16:07:38.395Z,15.95
2022-12-11T16:10:43.613Z,12.57
2022-12-11T16:13:46.918Z,16.00
2022-12-11T16:16:50.324Z,14.10
2022-12-11T16:19:54.327Z,16.58
2022-12-11T16:22:58.549Z,17.30
2022-12-11T16:26:07.809Z,16.17
2022-12-11T16:29:11.280Z,16.67
2022-12-11T16:32:14.853Z,18.52
2022-12-11T16:35:18.952Z,16.65
2022-12-11T16:38:22.151Z,18.70
2022-12-11T16:41:25.491Z,16.38
2022-12-11T16:44:28.756Z,17.23
2022-12-11T16:47:32.205Z,14.20
2022-12-11T16:50:40.664Z,17.20
2022-12-11T16:53:43.885Z,17.07
2022-12-11T16:56:47.447Z,15.70
2022-12-11T16:59:51.234Z,15.80
2022-12-11T17:02:54.599Z,17.08
2022-12-11T17:06:00.140Z,15.30
2022-12-11T17:09:03.588Z,16.52
2022-12-11T17:12:08.371Z,15.90
2022-12-11T17:15:12.592Z,16.58
2022-12-11T17:18:16.340Z,16.00
2022-12-11T17:21:22.249Z,18.00
2022-12-11T17:24:25.781Z,18.17
2022-12-11T17:27:29.049Z,18.57
2022-12-11T17:30:33.505Z,19.00
2022-12-11T17:33:37.223Z,17.75
2022-12-11T17:36:40.628Z,17.05
2022-12-11T17:39:44.130Z,28.27
2022-12-11T17:42:47.988Z,20.20
2022-12-11T17:45:52.694Z,17.05
2022-12-11T17:48:56.780Z,18.03
2022-12-11T17:52:00.202Z,19.65
2022-12-11T17:55:06.936Z,16.02
2022-12-11T17:58:14.725Z,21.90
2022-12-11T18:01:18.303Z,17.23
2022-12-11T18:04:21.816Z,17.67
2022-12-11T18:07:25.387Z,20.30
2022-12-11T18:10:29.047Z,21.38
2022-12-11T18:13:32.409Z,20.77
2022-12-11T18:16:38.176Z,20.17
2022-12-11T18:19:45.999Z,21.37
2022-12-11T18:22:51.035Z,20.88
2022-12-11T18:25:54.836Z,19.90
2022-12-11T18:28:58.390Z,18.95
2022-12-11T18:32:02.328Z,19.88
2022-12-11T18:35:06.122Z,21.50
2022-12-11T18:38:09.657Z,23.42
2022-12-11T18:41:14.704Z,21.03
2022-12-11T18:44:22.582Z,24.60
2022-12-11T18:47:26.303Z,22.02
2022-12-11T18:50:31.994Z,20.37
2022-12-11T18:53:36.048Z,23.38
2022-12-11T18:56:41.736Z,19.80
2022-12-11T18:59:45.204Z,19.55
2022-12-11T19:02:52.648Z,20.00
2022-12-11T19:05:56.093Z,22.58
2022-12-11T19:09:00.372Z,22.77
2022-12-11T19:12:03.935Z,19.30
2022-12-11T19:15:07.728Z,22.80
2022-12-11T19:18:11.387Z,21.17
2022-12-11T19:21:16.487Z,20.38
2022-12-11T19:24:22.958Z,26.30
2022-12-11T19:27:26.713Z,22.52
2022-12-11T19:30:30.144Z,27.23
2022-12-11T19:33:33.668Z,21.80
2022-12-11T19:36:37.419Z,26.30
2022-12-11T19:39:41.034Z,25.70
2022-12-11T19:42:44.567Z,22.27
2022-12-11T19:45:48.339Z,20.15
2022-12-11T19:48:54.220Z,25.33
2022-12-11T19:51:57.725Z,21.92
2022-12-11T19:55:04.995Z,21.05
2022-12-11T19:58:08.433Z,24.17
2022-12-11T20:01:22.448Z,24.25
2022-12-11T20:04:26.176Z,18.07
2022-12-11T20:07:30.935Z,21.60
2022-12-11T20:10:36.110Z,18.20
2022-12-11T20:13:41.121Z,18.97
2022-12-11T20:17:10.043Z,22.55
2022-12-11T20:20:12.525Z,19.27
2022-12-11T20:23:16.300Z,23.63
2022-12-11T20:26:23.319Z,17.67
2022-12-11T20:29:27.039Z,17.38
2022-12-11T20:32:30.444Z,17.85
2022-12-11T20:35:33.844Z,20.00
2022-12-11T20:38:37.972Z,18.83
2022-12-11T20:41:41.812Z,20.83
2022-12-11T20:44:49.251Z,21.02
2022-12-11T20:47:53.069Z,20.80
2022-12-11T20:51:01.067Z,21.15
2022-12-11T20:54:04.628Z,21.15
2022-12-11T20:57:08.035Z,22.43
2022-12-11T21:00:12.231Z,25.80
2022-12-11T21:03:15.908Z,21.23
2022-12-11T21:06:30.088Z,23.67
2022-12-11T21:09:36.637Z,23.13
2022-12-11T21:12:40.242Z,22.58
2022-12-11T21:15:44.108Z,19.73
2022-12-11T21:18:48.325Z,21.60
2022-12-11T21:21:51.678Z,21.50
2022-12-11T21:24:55.205Z,22.23
2022-12-11T21:27:58.664Z,17.97
2022-12-11T21:31:04.559Z,21.17
2022-12-11T21:34:08.593Z,18.73
2022-12-11T21:37:11.762Z,21.23
2022-12-11T21:40:18.951Z,20.65
2022-12-11T21:43:23.233Z,20.23
2022-12-11T21:46:28.363Z,19.40
2022-12-11T21:49:31.732Z,17.63
2022-12-11T21:52:36.730Z,16.35
2022-12-11T21:55:42.247Z,18.23
2022-12-11T21:58:46.621Z,18.47
2022-12-11T22:01:51.398Z,18.45
2022-12-11T22:04:55.217Z,15.52
2022-12-11T22:07:58.509Z,15.93
2022-12-11T22:11:02.220Z,16.35
2022-12-11T22:14:06.911Z,15.68
2022-12-11T22:17:10.163Z,17.88
2022-12-11T22:20:13.404Z,15.27
2022-12-11T22:23:16.542Z,17.08
2022-12-11T22:26:23.592Z,14.85
2022-12-11T22:29:26.992Z,18.30
2022-12-11T22:32:30.341Z,16.33
2022-12-11T22:35:33.595Z,15.73
2022-12-11T22:38:37.153Z,15.00
2022-12-11T22:41:42.455Z,15.27
2022-12-11T22:44:48.085Z,15.32
2022-12-11T22:47:52.312Z,15.38
2022-12-11T22:50:55.692Z,16.87
2022-12-11T22:53:59.330Z,15.20
2022-12-11T22:57:05.072Z,15.55
2022-12-11T23:00:14.230Z,15.93
2022-12-11T23:03:17.457Z,14.13
2022-12-11T23:06:23.287Z,17.40
2022-12-11T23:09:26.834Z,20.80
2022-12-11T23:12:30.086Z,20.35
2022-12-11T23:15:33.304Z,19.88
2022-12-11T23:18:36.643Z,21.83
2022-12-11T23:21:40.226Z,22.17
2022-12-11T23:24:43.803Z,20.75
2022-12-11T23:27:46.982Z,22.58
2022-12-11T23:30:50.544Z,21.20
2022-12-11T23:33:54.531Z,21.42
2022-12-11T23:36:57.777Z,20.05
2022-12-11T23:40:01.165Z,21.95
2022-12-11T23:43:04.387Z,21.85
2022-12-11T23:46:19.925Z,23.23
2022-12-11T23:49:23.385Z,20.13
2022-12-11T23:52:26.672Z,22.17
2022-12-11T23:55:29.912Z,21.90
2022-12-11T23:58:35.576Z,24.75
